Terminal Aerodrome Forecast
Issued by NWS

Home | Current Version | Previous Version | Graphics & Text | Print | Product List | Glossary On
Versions: 1 2 3 4 5 6 7 8 9 10 11 12 13 14 15 16 17 18 19 20 21 22 23 24 25 26 27
000
FTUS43 KFGF 201300 AAB
TAFBJI
TAF AMD
KBJI 201331Z 2014/2112 29010KT P6SM BKN020
     FM201700 28012KT P6SM SCT008 BKN100
     FM202100 28015G30KT P6SM -TSRA BKN050CB
     FM210000 30012G20KT P6SM BKN050
     FM210200 30008KT P6SM BKN050=

USA.gov is the U.S. government's official web portal to all federal, state and local government web resources and services.